Time;durP1;ratioP1;P1;durP2;ratioP2;P2;SDS_P1;SDS_P2;PMS_P1;PMS_P2;Temp;Humidity;BMP_temperature;BMP_pressure;BME280_temperature;BME280_humidity;BME280_pressure;Samples;Min_cycle;Max_cycle;Signal;HPM_P1;HPM_P2
2022/10/19 00:00:49;;;;;;;1.80;0.90;;;12.60;99.90;;;;;;4987070;28;20230;-83
2022/10/19 00:03:15;;;;;;;1.33;0.90;;;12.60;99.90;;;;;;4986709;28;20220;-80
2022/10/19 00:05:41;;;;;;;0.73;0.20;;;12.70;99.90;;;;;;4993038;28;20219;-83
2022/10/19 00:08:07;;;;;;;5.47;0.70;;;12.80;99.90;;;;;;4989410;28;20232;-84
2022/10/19 00:10:32;;;;;;;3.67;0.50;;;13.00;99.90;;;;;;4967849;28;20717;-80
2022/10/19 00:12:58;;;;;;;2.47;0.67;;;13.00;99.90;;;;;;4959265;28;20184;-83
2022/10/19 00:15:24;;;;;;;0.90;0.50;;;13.00;99.90;;;;;;4986482;28;20226;-81
2022/10/19 00:17:50;;;;;;;0.20;0.20;;;13.00;99.90;;;;;;5008061;28;20211;-81
2022/10/19 00:20:16;;;;;;;11.20;0.57;;;13.00;99.90;;;;;;4985431;28;20315;-80
2022/10/19 00:22:42;;;;;;;3.73;0.40;;;13.00;99.90;;;;;;4954980;28;20764;-81
2022/10/19 00:25:08;;;;;;;4.70;0.73;;;12.90;99.90;;;;;;4979806;28;20210;-83
2022/10/19 00:27:34;;;;;;;2.00;0.77;;;13.00;99.90;;;;;;4986762;28;20219;-80
2022/10/19 00:30:00;;;;;;;3.23;1.43;;;12.90;99.90;;;;;;4972124;28;20236;-82
2022/10/19 00:32:26;;;;;;;1.47;0.30;;;12.90;99.90;;;;;;4966341;28;20521;-85
2022/10/19 00:34:51;;;;;;;4.27;0.70;;;12.90;99.90;;;;;;4972483;28;20226;-81
2022/10/19 00:37:17;;;;;;;1.73;0.53;;;12.90;99.90;;;;;;4985683;28;20192;-83
2022/10/19 00:39:43;;;;;;;0.40;0.40;;;13.00;99.90;;;;;;4934359;28;20267;-83
2022/10/19 00:42:12;;;;;;;1.33;1.23;;;13.00;99.90;;;;;;4987570;28;20251;-84
2022/10/19 00:44:38;;;;;;;3.70;0.30;;;12.90;99.90;;;;;;4961904;28;20254;-81
2022/10/19 00:47:06;;;;;;;2.00;0.67;;;12.90;99.90;;;;;;4996315;28;20716;-83
2022/10/19 00:49:36;;;;;;;0.40;0.40;;;12.90;99.90;;;;;;5011909;28;20246;-80
2022/10/19 00:52:11;;;;;;;3.90;0.30;;;12.80;99.90;;;;;;5002315;28;20188;-81
2022/10/19 00:54:39;;;;;;;0.70;0.70;;;12.80;99.90;;;;;;4993714;28;20214;-83
2022/10/19 00:57:06;;;;;;;0.63;0.60;;;12.80;99.90;;;;;;4996137;28;20673;-81
2022/10/19 00:59:33;;;;;;;0.43;0.43;;;12.80;99.90;;;;;;4979713;28;20246;-83
2022/10/19 01:02:01;;;;;;;4.27;0.93;;;12.90;99.90;;;;;;4996220;28;20281;-81
2022/10/19 01:04:29;;;;;;;1.67;0.67;;;12.90;99.90;;;;;;4994815;28;20188;-82
2022/10/19 01:06:56;;;;;;;1.80;0.53;;;12.90;99.90;;;;;;4987087;28;20169;-80
2022/10/19 01:09:22;;;;;;;0.30;0.23;;;12.90;99.90;;;;;;4986605;28;21093;-84
2022/10/19 01:11:59;;;;;;;1.97;1.10;;;12.80;99.90;;;;;;4973831;28;20240;-81
2022/10/19 01:14:37;;;;;;;0.40;0.40;;;12.80;99.90;;;;;;4974350;28;20273;-83
2022/10/19 01:17:33;;;;;;;3.97;0.30;;;12.80;99.90;;;;;;4986309;28;20220;-83
2022/10/19 01:20:37;;;;;;;4.80;0.60;;;12.80;99.90;;;;;;4986709;28;20231;-81
2022/10/19 01:23:21;;;;;;;2.13;0.47;;;12.70;99.90;;;;;;4986663;28;20399;-79
2022/10/19 01:26:07;;;;;;;3.73;0.60;;;12.80;99.90;;;;;;5002569;28;20297;-81
2022/10/19 01:28:58;;;;;;;1.97;0.70;;;12.80;99.90;;;;;;5004642;28;20208;-82
2022/10/19 01:31:42;;;;;;;0.80;0.80;;;12.80;99.90;;;;;;4994602;28;20191;-79
2022/10/19 01:34:18;;;;;;;2.33;0.50;;;12.80;99.90;;;;;;4993578;28;20191;-81
2022/10/19 01:36:57;;;;;;;9.73;0.80;;;12.80;99.90;;;;;;5000742;28;20226;-81
2022/10/19 01:40:03;;;;;;;1.00;0.50;;;12.90;99.90;;;;;;4968203;28;20224;-81
2022/10/19 01:42:51;;;;;;;3.93;1.13;;;12.90;99.90;;;;;;4983256;28;20234;-81
2022/10/19 01:45:39;;;;;;;4.07;0.67;;;12.90;99.90;;;;;;4985064;28;20231;-80
2022/10/19 01:48:17;;;;;;;8.53;0.70;;;12.80;99.90;;;;;;4984002;28;20239;-81
2022/10/19 01:51:10;;;;;;;3.60;0.50;;;12.60;99.90;;;;;;5005497;28;20270;-81
2022/10/19 01:53:45;;;;;;;1.03;0.37;;;12.60;99.90;;;;;;4987311;28;20232;-81
2022/10/19 01:56:11;;;;;;;3.83;0.37;;;12.60;99.90;;;;;;4984356;28;20274;-80
2022/10/19 01:58:40;;;;;;;3.00;0.57;;;12.60;99.90;;;;;;4985617;28;20295;-81
2022/10/19 02:01:09;;;;;;;1.33;0.43;;;12.60;99.90;;;;;;4992586;28;20736;-81
2022/10/19 02:03:36;;;;;;;0.33;0.30;;;12.60;99.90;;;;;;4985416;28;20711;-79
2022/10/19 02:06:05;;;;;;;2.97;1.40;;;12.50;99.90;;;;;;4985215;28;20315;-81
2022/10/19 02:08:38;;;;;;;0.97;0.50;;;12.50;99.90;;;;;;4989508;28;20219;-79
2022/10/19 02:11:04;;;;;;;2.17;0.70;;;12.60;99.90;;;;;;4994930;28;20230;-83
2022/10/19 02:13:30;;;;;;;2.40;0.70;;;12.70;99.90;;;;;;4991948;28;20198;-81
2022/10/19 02:16:00;;;;;;;1.50;0.70;;;12.70;99.90;;;;;;4983916;28;20219;-83
2022/10/19 02:18:30;;;;;;;4.10;0.73;;;12.80;99.90;;;;;;4984595;28;20929;-80
2022/10/19 02:20:57;;;;;;;0.63;0.63;;;12.80;99.90;;;;;;4991424;28;20676;-80
2022/10/19 02:23:25;;;;;;;2.50;0.63;;;12.80;99.90;;;;;;4987911;28;20224;-80
2022/10/19 02:25:51;;;;;;;3.30;0.97;;;12.80;99.90;;;;;;4979506;28;20217;-80
2022/10/19 02:28:17;;;;;;;1.27;0.40;;;12.80;99.90;;;;;;4979790;28;20247;-80
2022/10/19 02:30:43;;;;;;;9.03;2.13;;;12.70;99.90;;;;;;4984727;28;20235;-83
2022/10/19 02:33:11;;;;;;;5.13;1.37;;;12.70;99.90;;;;;;4984653;28;20258;-82
2022/10/19 02:35:37;;;;;;;7.10;0.87;;;12.60;99.90;;;;;;4957335;28;20275;-81
2022/10/19 02:38:06;;;;;;;1.63;0.63;;;12.60;99.90;;;;;;4965891;28;20224;-82
2022/10/19 02:40:38;;;;;;;1.20;1.00;;;12.50;99.90;;;;;;4965027;28;20219;-82
2022/10/19 02:43:10;;;;;;;0.57;0.27;;;12.40;99.90;;;;;;4980602;28;20193;-81
2022/10/19 02:45:41;;;;;;;6.80;0.80;;;12.30;99.90;;;;;;4982966;28;20220;-82
2022/10/19 02:48:12;;;;;;;0.87;0.57;;;12.20;99.90;;;;;;4990874;28;20257;-79
2022/10/19 02:50:43;;;;;;;2.97;0.80;;;12.00;99.90;;;;;;5008698;28;20270;-82
2022/10/19 02:53:08;;;;;;;0.70;0.70;;;11.90;99.90;;;;;;4993078;28;20224;-80
2022/10/19 02:55:34;;;;;;;3.20;0.53;;;11.90;99.90;;;;;;4976943;28;20183;-81
2022/10/19 02:58:00;;;;;;;3.17;0.50;;;11.70;99.90;;;;;;5008508;28;20715;-83
2022/10/19 03:00:26;;;;;;;0.63;0.40;;;11.60;99.90;;;;;;4995758;28;20231;-80
2022/10/19 03:02:51;;;;;;;1.30;0.90;;;11.50;99.90;;;;;;4983818;28;20224;-80
2022/10/19 03:05:17;;;;;;;1.13;0.50;;;11.40;99.90;;;;;;4947348;28;20224;-82
2022/10/19 03:07:43;;;;;;;1.80;0.87;;;11.40;99.90;;;;;;4934723;28;20224;-82
2022/10/19 03:10:09;;;;;;;3.07;0.90;;;11.40;99.90;;;;;;4967052;28;20192;-82
2022/10/19 03:12:34;;;;;;;0.70;0.60;;;11.40;99.90;;;;;;4980339;28;20246;-81
2022/10/19 03:15:00;;;;;;;0.60;0.60;;;11.30;99.90;;;;;;4963230;28;20940;-81
2022/10/19 03:17:26;;;;;;;6.10;1.63;;;11.30;99.90;;;;;;4960234;28;20216;-82
2022/10/19 03:19:51;;;;;;;5.80;0.83;;;11.40;99.90;;;;;;4988546;28;20667;-81
2022/10/19 03:22:17;;;;;;;2.20;0.27;;;11.60;99.90;;;;;;4983080;28;20227;-82
2022/10/19 03:24:43;;;;;;;4.60;0.43;;;11.60;99.90;;;;;;4982918;28;20238;-80
2022/10/19 03:27:09;;;;;;;0.73;0.53;;;11.60;99.90;;;;;;4984117;28;20361;-82
2022/10/19 03:29:34;;;;;;;1.27;0.70;;;11.70;99.90;;;;;;4988082;28;20579;-80
2022/10/19 03:32:00;;;;;;;7.13;1.30;;;11.70;99.90;;;;;;4995160;28;20298;-82
2022/10/19 03:34:26;;;;;;;0.97;0.90;;;11.80;99.90;;;;;;4992555;28;20195;-82
2022/10/19 03:36:52;;;;;;;0.93;0.53;;;11.80;99.90;;;;;;4991445;28;20207;-81
2022/10/19 03:39:17;;;;;;;2.13;0.73;;;11.80;99.90;;;;;;4969149;28;20671;-79
2022/10/19 03:41:43;;;;;;;3.33;0.93;;;11.80;99.90;;;;;;4981521;28;20297;-79
2022/10/19 03:44:10;;;;;;;0.57;0.50;;;11.80;99.90;;;;;;4997397;28;21004;-80
2022/10/19 03:46:36;;;;;;;1.77;0.57;;;11.70;99.90;;;;;;4966859;28;20201;-82
2022/10/19 03:49:03;;;;;;;0.20;0.20;;;11.70;99.90;;;;;;4999214;28;20239;-78
2022/10/19 03:51:30;;;;;;;1.80;0.43;;;11.70;99.90;;;;;;4983297;28;20230;-82
2022/10/19 03:54:01;;;;;;;2.33;0.47;;;11.70;99.90;;;;;;4991604;28;20219;-82
2022/10/19 03:56:28;;;;;;;4.47;0.83;;;11.80;99.90;;;;;;4991931;28;20216;-82
2022/10/19 03:58:56;;;;;;;3.47;1.23;;;11.80;99.90;;;;;;4987412;28;20231;-80
2022/10/19 04:01:29;;;;;;;5.53;0.63;;;11.70;99.90;;;;;;4987233;28;20755;-82
2022/10/19 04:03:57;;;;;;;3.30;0.97;;;11.60;99.90;;;;;;4997377;28;20184;-81
2022/10/19 04:06:25;;;;;;;2.63;1.00;;;11.60;99.90;;;;;;4987508;28;20212;-83
2022/10/19 04:08:51;;;;;;;1.53;1.07;;;11.60;99.90;;;;;;4987603;28;20220;-82
2022/10/19 04:11:20;;;;;;;5.27;0.83;;;11.70;99.90;;;;;;4989476;28;20276;-82
2022/10/19 04:13:51;;;;;;;2.40;0.40;;;11.70;99.90;;;;;;5012020;28;20215;-83
2022/10/19 04:16:18;;;;;;;3.10;0.57;;;11.70;99.90;;;;;;4994113;28;20191;-81
2022/10/19 04:18:43;;;;;;;14.07;1.87;;;11.70;99.90;;;;;;4987196;28;20515;-81
2022/10/19 04:21:24;;;;;;;1.03;0.80;;;11.80;99.90;;;;;;4986974;28;20250;-81
2022/10/19 04:23:52;;;;;;;0.40;0.33;;;11.80;99.90;;;;;;4991227;28;20223;-78
2022/10/19 04:26:19;;;;;;;2.33;0.33;;;11.80;99.90;;;;;;4998776;28;20267;-80
2022/10/19 04:28:45;;;;;;;1.50;0.70;;;11.70;99.90;;;;;;4970579;28;20227;-80
2022/10/19 04:31:11;;;;;;;3.83;0.47;;;11.80;99.90;;;;;;4985364;28;20616;-80
2022/10/19 04:33:38;;;;;;;2.50;0.63;;;11.70;99.90;;;;;;4985585;28;20584;-82
2022/10/19 04:36:06;;;;;;;0.27;0.27;;;11.70;99.90;;;;;;4991829;28;20216;-81
2022/10/19 04:38:33;;;;;;;1.13;0.63;;;11.60;99.90;;;;;;4996004;28;20238;-81
2022/10/19 04:41:13;;;;;;;1.40;0.30;;;11.60;99.90;;;;;;4990183;28;20236;-81
2022/10/19 04:43:39;;;;;;;1.23;0.40;;;11.70;99.90;;;;;;4986688;28;21357;-84
2022/10/19 04:46:07;;;;;;;4.53;0.63;;;11.70;99.90;;;;;;4987352;28;20207;-79
2022/10/19 04:48:34;;;;;;;2.73;0.57;;;11.70;99.90;;;;;;4983844;28;20267;-81
2022/10/19 04:51:00;;;;;;;0.43;0.43;;;11.70;99.90;;;;;;4978998;28;20282;-82
2022/10/19 04:53:26;;;;;;;0.30;0.30;;;11.70;99.90;;;;;;4960777;28;20216;-82
2022/10/19 04:55:52;;;;;;;1.80;1.00;;;11.70;99.90;;;;;;4973364;28;20322;-82
2022/10/19 04:58:18;;;;;;;1.97;1.00;;;11.80;99.90;;;;;;4962803;28;21131;-83
2022/10/19 05:00:43;;;;;;;4.13;0.97;;;11.80;99.90;;;;;;4984876;28;20643;-82
2022/10/19 05:03:09;;;;;;;1.33;1.20;;;11.80;99.90;;;;;;4993845;28;20681;-83
2022/10/19 05:05:35;;;;;;;1.60;1.43;;;11.70;99.90;;;;;;4996970;28;20347;-81
2022/10/19 05:08:01;;;;;;;0.53;0.30;;;11.80;99.90;;;;;;4999237;28;20238;-82
2022/10/19 05:10:27;;;;;;;9.10;0.70;;;11.80;99.90;;;;;;4977966;28;20203;-84
2022/10/19 05:12:53;;;;;;;1.07;0.80;;;11.90;99.90;;;;;;4986047;28;20195;-81
2022/10/19 05:15:19;;;;;;;0.77;0.43;;;11.90;99.90;;;;;;4991725;28;20223;-82
2022/10/19 05:17:44;;;;;;;5.30;0.77;;;11.90;99.90;;;;;;5011967;28;20584;-83
2022/10/19 05:20:10;;;;;;;3.23;0.83;;;11.90;99.90;;;;;;4988620;28;20235;-82
2022/10/19 05:22:37;;;;;;;4.47;0.50;;;11.90;99.90;;;;;;4986224;28;20200;-81
2022/10/19 05:25:03;;;;;;;1.87;0.43;;;11.90;99.90;;;;;;4969935;28;20222;-84
2022/10/19 05:27:29;;;;;;;3.20;0.97;;;11.90;99.90;;;;;;4967616;28;20761;-81
2022/10/19 05:29:55;;;;;;;1.50;0.57;;;11.90;99.90;;;;;;4970338;28;20298;-82
2022/10/19 05:32:21;;;;;;;3.73;0.80;;;12.00;99.90;;;;;;4976759;28;20293;-83
2022/10/19 05:34:46;;;;;;;5.00;1.17;;;11.90;99.90;;;;;;5008677;28;20227;-82
2022/10/19 05:37:12;;;;;;;6.90;0.70;;;11.90;99.90;;;;;;4985326;28;20657;-81
2022/10/19 05:39:38;;;;;;;5.67;0.70;;;11.90;99.90;;;;;;4993642;28;20251;-80
2022/10/19 05:42:04;;;;;;;0.70;0.60;;;11.90;99.90;;;;;;4992994;28;21150;-84
2022/10/19 05:44:29;;;;;;;2.47;0.90;;;12.00;99.90;;;;;;4976230;28;20235;-84
2022/10/19 05:46:55;;;;;;;0.50;0.50;;;12.00;99.90;;;;;;4991527;28;20223;-84
2022/10/19 05:49:21;;;;;;;4.27;0.97;;;11.90;99.90;;;;;;4986264;28;20690;-79
2022/10/19 05:51:48;;;;;;;1.03;0.80;;;12.00;99.90;;;;;;4986068;28;20204;-82
2022/10/19 05:54:14;;;;;;;5.33;1.30;;;12.00;99.90;;;;;;4993492;28;20556;-83
2022/10/19 05:56:41;;;;;;;1.00;0.40;;;12.00;99.90;;;;;;4985831;28;20220;-83
2022/10/19 05:59:09;;;;;;;6.50;1.03;;;12.00;99.90;;;;;;4969528;28;20335;-83
2022/10/19 06:01:35;;;;;;;11.40;1.77;;;12.00;99.90;;;;;;4976164;28;20238;-84
2022/10/19 06:04:02;;;;;;;3.90;0.93;;;12.00;99.90;;;;;;4969283;28;20192;-84
2022/10/19 06:06:30;;;;;;;5.30;0.60;;;12.00;99.90;;;;;;4985448;28;20228;-83
2022/10/19 06:08:57;;;;;;;4.23;0.90;;;11.90;99.90;;;;;;4984360;28;20274;-83
2022/10/19 06:11:33;;;;;;;3.33;1.33;;;11.80;99.90;;;;;;4992210;28;20220;-85
2022/10/19 06:14:01;;;;;;;2.53;0.87;;;11.70;99.90;;;;;;4970423;28;20223;-83
2022/10/19 06:16:28;;;;;;;2.37;0.60;;;11.70;99.90;;;;;;4967247;28;20591;-84
2022/10/19 06:18:55;;;;;;;2.30;0.90;;;11.70;99.90;;;;;;4984656;28;20188;-82
2022/10/19 06:21:26;;;;;;;1.40;0.90;;;11.80;99.90;;;;;;4934985;28;20228;-83
2022/10/19 06:23:54;;;;;;;3.00;1.00;;;11.70;99.90;;;;;;4978273;28;20231;-83
2022/10/19 06:26:20;;;;;;;3.63;1.27;;;11.70;99.90;;;;;;4960282;28;20227;-84
2022/10/19 06:28:47;;;;;;;13.70;1.33;;;11.70;99.90;;;;;;4971333;28;20719;-80
2022/10/19 06:31:13;;;;;;;6.63;1.00;;;11.70;99.90;;;;;;4993579;28;20205;-83
2022/10/19 06:33:41;;;;;;;2.73;0.63;;;11.70;99.90;;;;;;4981660;28;20225;-82
2022/10/19 06:36:11;;;;;;;0.40;0.40;;;11.70;99.90;;;;;;4980732;28;20227;-85
2022/10/19 06:38:36;;;;;;;1.47;1.37;;;11.60;99.90;;;;;;4990425;28;20227;-84
2022/10/19 06:41:02;;;;;;;2.73;1.27;;;11.60;99.90;;;;;;4974098;28;20228;-84
2022/10/19 06:43:28;;;;;;;5.80;1.33;;;11.60;99.90;;;;;;4958844;28;20196;-83
2022/10/19 06:45:54;;;;;;;1.57;0.67;;;11.60;99.90;;;;;;4983471;28;20296;-84
2022/10/19 06:48:20;;;;;;;0.40;0.40;;;11.70;99.90;;;;;;4966483;28;20216;-83
2022/10/19 06:50:46;;;;;;;1.80;0.80;;;11.80;99.90;;;;;;4972281;28;20243;-83
2022/10/19 06:53:11;;;;;;;0.30;0.30;;;11.80;99.90;;;;;;4947583;28;20235;-84
2022/10/19 06:55:37;;;;;;;3.10;0.60;;;11.90;99.90;;;;;;4950653;28;20639;-84
2022/10/19 06:58:03;;;;;;;6.63;0.60;;;12.00;99.90;;;;;;4984969;28;20191;-84
2022/10/19 07:00:30;;;;;;;6.37;1.30;;;12.00;99.90;;;;;;4985877;28;20230;-84
2022/10/19 07:02:58;;;;;;;4.10;0.83;;;12.10;99.90;;;;;;4984328;28;20551;-85
2022/10/19 07:05:24;;;;;;;7.37;0.93;;;12.20;99.90;;;;;;4984581;28;20224;-84
2022/10/19 07:07:49;;;;;;;2.43;0.50;;;12.10;99.90;;;;;;4947822;28;20216;-84
2022/10/19 07:10:15;;;;;;;1.17;1.07;;;12.20;99.90;;;;;;4949020;28;20192;-85
2022/10/19 07:12:41;;;;;;;1.40;0.47;;;12.30;99.90;;;;;;4949077;28;20802;-82
2022/10/19 07:15:07;;;;;;;1.23;0.70;;;12.40;99.90;;;;;;4964926;28;20229;-86
2022/10/19 07:17:33;;;;;;;1.17;1.07;;;12.40;99.90;;;;;;4964967;28;20224;-83
2022/10/19 07:19:59;;;;;;;3.83;0.87;;;12.40;99.90;;;;;;4953974;28;20239;-83
2022/10/19 07:22:24;;;;;;;0.80;0.57;;;12.30;99.90;;;;;;4984720;28;20215;-82
2022/10/19 07:24:51;;;;;;;6.87;2.37;;;12.40;99.90;;;;;;4993368;28;20696;-84
2022/10/19 07:27:17;;;;;;;2.27;0.60;;;12.50;99.90;;;;;;4994579;28;20216;-86
2022/10/19 07:29:43;;;;;;;2.57;1.10;;;12.50;99.90;;;;;;4991561;28;20285;-84
2022/10/19 07:32:08;;;;;;;4.93;0.83;;;12.60;99.90;;;;;;4965697;28;20216;-84
2022/10/19 07:34:34;;;;;;;1.30;0.80;;;12.70;99.90;;;;;;4955058;28;20205;-84
2022/10/19 07:37:00;;;;;;;1.17;0.80;;;12.80;99.90;;;;;;4982233;28;20183;-87
2022/10/19 07:39:26;;;;;;;3.87;0.73;;;12.80;99.90;;;;;;4971659;28;20232;-84
2022/10/19 07:41:52;;;;;;;3.43;1.03;;;12.90;99.90;;;;;;4986523;28;20227;-84
2022/10/19 07:44:17;;;;;;;2.23;1.07;;;13.00;99.90;;;;;;4981704;28;20276;-88
2022/10/19 07:46:43;;;;;;;0.53;0.53;;;12.90;99.90;;;;;;4995833;28;20219;-85
2022/10/19 07:49:13;;;;;;;0.80;0.57;;;13.00;99.90;;;;;;4980215;28;20235;-87
2022/10/19 07:51:39;;;;;;;2.87;1.53;;;13.10;99.90;;;;;;5014308;28;20756;-85
2022/10/19 07:54:05;;;;;;;3.93;0.90;;;13.10;99.90;;;;;;4977430;28;20235;-88
2022/10/19 07:56:31;;;;;;;0.50;0.50;;;13.10;99.90;;;;;;4935154;28;20216;-89
2022/10/19 07:58:58;;;;;;;2.73;1.20;;;13.20;99.90;;;;;;4957905;28;20223;-88
2022/10/19 08:01:46;;;;;;;1.87;1.17;;;13.40;99.90;;;;;;4988510;28;20662;-90
2022/10/19 08:04:12;;;;;;;1.73;0.83;;;13.40;99.90;;;;;;4988659;28;20182;-88
2022/10/19 08:06:37;;;;;;;0.80;0.43;;;13.50;99.90;;;;;;4938328;28;20304;-90
2022/10/19 08:09:04;;;;;;;2.17;0.73;;;13.50;99.90;;;;;;4955979;28;20285;-89
2022/10/19 08:11:32;;;;;;;4.00;0.67;;;13.60;99.90;;;;;;4967065;28;20310;-89
2022/10/19 08:13:58;;;;;;;8.27;1.20;;;13.60;99.90;;;;;;5013300;28;20220;-90
2022/10/19 08:16:28;;;;;;;0.77;0.60;;;13.60;99.90;;;;;;4997318;28;20215;-90
2022/10/19 08:19:02;;;;;;;1.30;1.07;;;13.60;99.90;;;;;;4995904;28;20184;-90
2022/10/19 08:21:29;;;;;;;2.67;0.43;;;13.60;99.90;;;;;;5006254;28;20282;-90
2022/10/19 08:23:55;;;;;;;5.87;0.83;;;13.50;99.90;;;;;;5012912;28;20224;-88
2022/10/19 08:26:21;;;;;;;2.23;1.27;;;13.50;99.90;;;;;;4985037;28;20225;-88
2022/10/19 08:28:47;;;;;;;5.90;1.17;;;13.40;99.90;;;;;;4976284;28;20306;-86
2022/10/19 08:31:16;;;;;;;2.47;0.97;;;13.40;99.90;;;;;;4953232;28;20714;-91
2022/10/19 08:33:43;;;;;;;3.10;0.63;;;13.50;99.90;;;;;;4996090;28;20278;-86
2022/10/19 08:36:11;;;;;;;0.63;0.47;;;13.40;99.90;;;;;;4981278;28;20258;-85
2022/10/19 08:38:37;;;;;;;1.83;0.43;;;13.30;99.90;;;;;;4991564;28;20223;-89
2022/10/19 08:41:17;;;;;;;1.93;0.77;;;13.30;99.90;;;;;;4987325;28;20231;-87
2022/10/19 08:44:06;;;;;;;2.33;0.67;;;13.30;99.90;;;;;;5003734;28;20216;-86
2022/10/19 08:47:06;;;;;;;0.67;0.67;;;13.30;99.90;;;;;;4988012;28;20642;-85
2022/10/19 08:49:32;;;;;;;0.17;0.17;;;13.30;99.90;;;;;;5002624;28;20290;-88
2022/10/19 08:52:02;;;;;;;3.10;0.43;;;13.20;99.90;;;;;;5004549;28;20188;-88
2022/10/19 08:54:50;;;;;;;0.50;0.50;;;13.20;99.90;;;;;;4986789;28;20419;-87
2022/10/19 08:57:29;;;;;;;5.20;0.97;;;13.20;99.90;;;;;;4987129;28;20940;-88
2022/10/19 09:00:16;;;;;;;3.03;0.60;;;13.40;99.90;;;;;;4987104;28;20219;-86
2022/10/19 09:02:57;;;;;;;3.33;0.60;;;13.50;99.90;;;;;;4992181;28;20235;-85
2022/10/19 09:05:29;;;;;;;0.73;0.73;;;13.50;99.90;;;;;;4983653;28;20232;-89
2022/10/19 09:07:54;;;;;;;3.77;0.47;;;13.50;99.90;;;;;;4983976;28;20243;-85
2022/10/19 09:10:34;;;;;;;5.80;0.63;;;13.60;99.90;;;;;;4950831;28;20698;-88
2022/10/19 09:13:34;;;;;;;1.13;0.57;;;13.60;99.90;;;;;;5003532;28;20172;-87
2022/10/19 09:16:01;;;;;;;3.37;0.97;;;13.40;99.90;;;;;;5003270;28;20212;-87
2022/10/19 09:18:33;;;;;;;0.40;0.40;;;13.40;99.90;;;;;;4986478;28;20711;-88
2022/10/19 09:21:35;;;;;;;10.57;0.70;;;13.40;99.90;;;;;;4973365;28;20227;-90
2022/10/19 09:24:25;;;;;;;1.90;0.83;;;13.50;99.90;;;;;;4981238;28;20239;-88
2022/10/19 09:26:54;;;;;;;1.90;0.57;;;13.50;99.90;;;;;;4979060;28;20608;-85
2022/10/19 09:29:24;;;;;;;0.70;0.70;;;13.40;99.90;;;;;;4987081;28;20240;-89
2022/10/19 09:31:54;;;;;;;2.27;0.80;;;13.40;99.90;;;;;;4988876;28;20567;-90
2022/10/19 09:34:31;;;;;;;0.50;0.40;;;13.40;99.90;;;;;;4996549;28;20207;-91
2022/10/19 09:36:58;;;;;;;1.87;1.00;;;13.40;99.90;;;;;;4978058;28;20599;-91
2022/10/19 09:39:27;;;;;;;1.23;1.13;;;13.40;99.90;;;;;;4972093;28;20663;-87
2022/10/19 09:41:55;;;;;;;8.97;1.43;;;13.50;99.90;;;;;;4977892;28;20247;-88
2022/10/19 09:44:23;;;;;;;1.23;0.50;;;13.70;99.90;;;;;;4977633;28;20231;-87
2022/10/19 09:47:10;;;;;;;0.20;0.20;;;13.80;99.90;;;;;;4983551;28;20259;-84
2022/10/19 09:49:47;;;;;;;0.40;0.40;;;13.60;99.90;;;;;;4985966;28;20323;-89
2022/10/19 09:52:33;;;;;;;0.93;0.27;;;13.70;99.90;;;;;;4996801;28;20326;-89
2022/10/19 09:55:12;;;;;;;5.57;0.80;;;13.70;99.90;;;;;;4996819;28;20207;-90
2022/10/19 09:57:52;;;;;;;1.57;0.60;;;13.70;99.90;;;;;;4985634;28;20235;-91
2022/10/19 10:00:24;;;;;;;5.80;2.37;;;13.60;99.90;;;;;;4984606;28;20235;-90
2022/10/19 10:02:54;;;;;;;0.50;0.50;;;13.80;99.90;;;;;;5001973;28;20219;-90
2022/10/19 10:05:38;;;;;;;1.13;0.43;;;13.70;99.90;;;;;;4993764;28;20266;-88
2022/10/19 10:08:13;;;;;;;6.17;0.57;;;13.50;99.90;;;;;;5014223;28;20230;-87
2022/10/19 10:10:44;;;;;;;0.30;0.30;;;13.50;99.90;;;;;;5008056;28;20563;-87
2022/10/19 10:13:23;;;;;;;3.53;0.73;;;13.60;99.90;;;;;;5001534;28;20187;-89
2022/10/19 10:15:54;;;;;;;3.67;0.57;;;13.60;99.90;;;;;;4985682;28;20223;-86
2022/10/19 10:18:23;;;;;;;1.30;0.50;;;13.60;99.90;;;;;;4992198;28;20215;-88
2022/10/19 10:21:00;;;;;;;1.97;0.70;;;13.60;99.90;;;;;;4994017;28;20247;-87
2022/10/19 10:23:30;;;;;;;0.43;0.43;;;13.30;99.90;;;;;;4992359;28;20230;-87
2022/10/19 10:25:58;;;;;;;2.27;0.93;;;13.40;99.90;;;;;;4986661;28;20227;-84
2022/10/19 10:28:27;;;;;;;3.47;0.63;;;13.40;99.90;;;;;;5000718;28;20184;-86
2022/10/19 10:31:02;;;;;;;2.97;0.50;;;13.40;99.90;;;;;;4993612;28;20717;-87
2022/10/19 10:33:29;;;;;;;2.80;0.83;;;13.40;99.90;;;;;;4982843;28;20306;-88
2022/10/19 10:36:02;;;;;;;2.20;1.23;;;13.60;99.90;;;;;;4987991;28;20211;-88
2022/10/19 10:38:37;;;;;;;1.60;0.50;;;13.60;99.90;;;;;;4987063;28;20222;-86
2022/10/19 10:41:16;;;;;;;3.40;0.40;;;13.90;99.90;;;;;;4988399;28;20693;-89
2022/10/19 10:44:02;;;;;;;1.97;0.80;;;14.00;99.90;;;;;;4992631;28;20642;-88
2022/10/19 10:46:34;;;;;;;0.50;0.50;;;14.00;99.90;;;;;;4955010;28;20224;-91
2022/10/19 10:49:05;;;;;;;2.43;0.53;;;14.00;99.90;;;;;;4967634;28;20238;-91
2022/10/19 10:51:38;;;;;;;3.07;0.93;;;14.10;99.90;;;;;;4982281;28;20228;-91
2022/10/19 10:54:31;;;;;;;1.57;0.60;;;14.10;99.90;;;;;;4982331;28;20768;-88
2022/10/19 10:57:12;;;;;;;6.73;0.67;;;14.50;99.90;;;;;;4966168;28;20597;-89
2022/10/19 11:00:09;;;;;;;1.40;0.50;;;14.40;99.90;;;;;;4981520;28;20220;-90
2022/10/19 11:02:45;;;;;;;0.70;0.63;;;14.40;99.90;;;;;;4968374;28;20228;-85
2022/10/19 11:05:27;;;;;;;8.60;0.87;;;14.50;99.90;;;;;;4985660;28;20223;-89
2022/10/19 11:08:12;;;;;;;2.73;1.30;;;14.60;99.90;;;;;;4969949;28;20740;-90
2022/10/19 11:10:48;;;;;;;1.13;0.67;;;14.80;99.90;;;;;;4970599;28;20283;-86
2022/10/19 11:13:43;;;;;;;2.00;1.13;;;15.00;99.90;;;;;;4971608;28;20183;-86
2022/10/19 11:16:15;;;;;;;0.93;0.47;;;14.60;99.90;;;;;;4979903;28;20216;-85
2022/10/19 11:18:55;;;;;;;2.83;0.40;;;14.30;99.90;;;;;;4980057;28;20224;-85
2022/10/19 11:21:25;;;;;;;4.70;0.70;;;13.90;99.90;;;;;;4979764;28;20701;-84
2022/10/19 11:24:12;;;;;;;6.10;0.97;;;13.70;99.90;;;;;;4979783;28;20228;-86
2022/10/19 11:27:16;;;;;;;0.63;0.63;;;13.70;99.90;;;;;;4991538;28;20215;-88
2022/10/19 11:30:09;;;;;;;1.87;1.03;;;13.80;99.90;;;;;;5002994;28;20318;-88
2022/10/19 11:32:53;;;;;;;3.63;0.70;;;13.90;99.90;;;;;;4986767;28;20216;-86
2022/10/19 11:35:37;;;;;;;2.37;0.73;;;13.80;99.90;;;;;;4967713;28;20231;-84
2022/10/19 11:38:24;;;;;;;0.90;0.60;;;13.80;99.90;;;;;;4970489;28;20532;-87
2022/10/19 11:41:09;;;;;;;3.47;0.60;;;13.90;99.90;;;;;;4985036;28;20259;-85
2022/10/19 11:43:51;;;;;;;4.27;0.80;;;14.00;99.90;;;;;;4968902;28;20536;-82
2022/10/19 11:46:44;;;;;;;2.83;0.47;;;14.10;99.90;;;;;;4967243;28;20184;-83
2022/10/19 11:49:16;;;;;;;5.53;0.80;;;14.20;99.90;;;;;;4984517;28;20258;-84
2022/10/19 11:51:48;;;;;;;4.97;0.93;;;14.10;99.90;;;;;;4987787;28;20341;-84
2022/10/19 11:54:35;;;;;;;0.50;0.50;;;13.80;99.90;;;;;;4988225;28;20220;-84
2022/10/19 11:57:31;;;;;;;6.43;0.70;;;13.80;99.90;;;;;;4987413;28;20274;-82
2022/10/19 12:00:09;;;;;;;5.40;0.83;;;14.00;99.90;;;;;;4987351;28;20347;-83
2022/10/19 12:03:07;;;;;;;3.23;1.73;;;14.30;99.90;;;;;;4985098;28;20681;-81
2022/10/19 12:05:46;;;;;;;1.37;0.70;;;14.70;99.90;;;;;;4987570;28;20220;-83
2022/10/19 12:08:39;;;;;;;2.77;0.53;;;14.60;99.90;;;;;;5006828;28;20219;-85
2022/10/19 12:11:15;;;;;;;1.83;0.90;;;14.90;99.90;;;;;;4994986;28;20232;-81
2022/10/19 12:13:51;;;;;;;1.13;0.67;;;15.10;99.90;;;;;;4987469;28;20216;-85
2022/10/19 12:16:20;;;;;;;7.07;1.00;;;14.90;99.90;;;;;;4988672;28;20176;-85
2022/10/19 12:18:50;;;;;;;0.73;0.60;;;14.90;99.90;;;;;;4987609;28;20610;-83
2022/10/19 12:21:28;;;;;;;0.30;0.30;;;15.00;99.90;;;;;;4988295;28;20228;-86
2022/10/19 12:23:57;;;;;;;0.60;0.43;;;14.50;99.90;;;;;;4988192;28;20219;-84
2022/10/19 12:26:26;;;;;;;5.63;0.90;;;14.60;99.90;;;;;;4989285;28;20239;-84
2022/10/19 12:28:56;;;;;;;1.63;0.80;;;14.20;99.90;;;;;;4995716;28;20216;-86
2022/10/19 12:31:24;;;;;;;4.13;0.73;;;13.80;99.90;;;;;;4987047;28;20180;-83
2022/10/19 12:34:12;;;;;;;1.33;0.53;;;13.60;99.90;;;;;;4986905;28;20184;-86
2022/10/19 12:36:54;;;;;;;0.70;0.43;;;13.50;99.90;;;;;;4982855;28;20709;-83
2022/10/19 12:39:25;;;;;;;3.33;1.30;;;13.80;99.90;;;;;;4983021;28;20224;-84
2022/10/19 12:42:21;;;;;;;0.97;0.70;;;14.00;99.90;;;;;;5001001;28;20239;-83
2022/10/19 12:44:50;;;;;;;0.20;0.20;;;13.80;99.90;;;;;;4990607;28;20239;-86
2022/10/19 12:47:23;;;;;;;4.17;0.67;;;13.70;99.90;;;;;;4979084;28;20242;-86
2022/10/19 12:49:54;;;;;;;1.70;0.63;;;13.80;99.90;;;;;;5010561;28;20238;-85
2022/10/19 12:52:47;;;;;;;1.13;1.13;;;13.70;99.90;;;;;;4996442;28;20661;-84
2022/10/19 12:55:26;;;;;;;1.93;1.03;;;13.90;99.90;;;;;;5001989;28;20236;-80
2022/10/19 12:58:19;;;;;;;2.53;0.90;;;13.90;99.90;;;;;;4986223;28;20222;-81
2022/10/19 13:00:58;;;;;;;8.03;1.10;;;14.00;99.90;;;;;;4984892;28;20711;-83
2022/10/19 13:03:30;;;;;;;0.23;0.23;;;13.90;99.90;;;;;;5010213;28;20303;-82
2022/10/19 13:05:57;;;;;;;0.53;0.53;;;13.70;99.90;;;;;;4995869;28;20221;-83
2022/10/19 13:08:34;;;;;;;1.47;0.80;;;13.50;99.90;;;;;;4975770;28;20212;-86